createdAt,value
2019-01-20T00:02:39.152Z,17.13
2019-01-20T00:05:42.588Z,19.30
2019-01-20T00:08:46.036Z,15.87
2019-01-20T00:11:49.466Z,15.07
2019-01-20T00:14:52.964Z,18.47
2019-01-20T00:17:56.399Z,20.20
2019-01-20T00:20:59.865Z,19.07
2019-01-20T00:24:03.280Z,16.93
2019-01-20T00:27:06.741Z,17.70
2019-01-20T00:30:17.944Z,16.80
2019-01-20T00:33:21.398Z,19.77
2019-01-20T00:36:24.821Z,19.57
2019-01-20T00:39:28.277Z,20.47
2019-01-20T00:42:32.668Z,18.43
2019-01-20T00:45:36.112Z,20.10
2019-01-20T00:48:39.560Z,17.40
2019-01-20T00:51:42.986Z,19.10
2019-01-20T00:54:46.462Z,19.97
2019-01-20T00:57:50.055Z,22.60
2019-01-20T01:00:53.504Z,17.30
2019-01-20T01:03:56.928Z,21.87
2019-01-20T01:07:00.395Z,18.67
2019-01-20T01:10:05.569Z,20.30
2019-01-20T01:13:09.577Z,19.27
2019-01-20T01:16:12.996Z,20.20
2019-01-20T01:19:16.444Z,20.10
2019-01-20T01:22:19.870Z,19.10
2019-01-20T01:25:23.318Z,18.50
2019-01-20T01:28:26.761Z,23.23
2019-01-20T01:31:30.188Z,21.30
2019-01-20T01:34:33.647Z,19.17
2019-01-20T01:37:37.065Z,21.77
2019-01-20T01:40:40.612Z,19.37
2019-01-20T01:43:44.025Z,17.93
2019-01-20T01:46:47.483Z,19.57
2019-01-20T01:49:50.901Z,21.47
2019-01-20T01:52:54.440Z,19.47
2019-01-20T01:55:57.864Z,20.60
2019-01-20T01:59:01.337Z,19.80
2019-01-20T02:02:04.820Z,18.83
2019-01-20T02:05:09.435Z,21.10
2019-01-20T02:08:12.857Z,24.30
2019-01-20T02:11:16.315Z,21.60
2019-01-20T02:14:19.747Z,22.23
2019-01-20T02:17:23.196Z,21.33
2019-01-20T02:20:26.632Z,20.80
2019-01-20T02:23:30.093Z,22.00
2019-01-20T02:26:33.576Z,20.53
2019-01-20T02:29:37.032Z,24.77
2019-01-20T02:32:40.547Z,23.23
2019-01-20T02:35:43.977Z,20.00
2019-01-20T02:38:47.429Z,23.43
2019-01-20T02:41:55.086Z,23.47
2019-01-20T02:44:56.033Z,21.90
2019-01-20T02:47:59.469Z,24.70
2019-01-20T02:51:02.917Z,22.97
2019-01-20T02:54:06.342Z,23.60
2019-01-20T02:57:09.808Z,23.00
2019-01-20T03:00:19.075Z,23.47
2019-01-20T03:03:22.538Z,23.87
2019-01-20T03:06:25.966Z,20.57
2019-01-20T03:09:29.408Z,29.17
2019-01-20T03:12:32.830Z,27.10
2019-01-20T03:15:36.283Z,21.07
2019-01-20T03:18:39.887Z,21.70
2019-01-20T03:21:43.337Z,21.50
2019-01-20T03:24:46.753Z,23.20
2019-01-20T03:27:50.216Z,25.07
2019-01-20T03:30:53.653Z,25.07
2019-01-20T03:33:57.154Z,25.33
2019-01-20T03:37:00.618Z,27.53
2019-01-20T03:40:07.339Z,25.83
2019-01-20T03:43:10.800Z,26.03
2019-01-20T03:46:14.222Z,26.53
2019-01-20T03:49:17.672Z,23.00
2019-01-20T03:52:21.112Z,22.87
2019-01-20T03:55:24.544Z,20.53
2019-01-20T03:58:28.007Z,26.43
2019-01-20T04:01:31.421Z,26.23
2019-01-20T04:04:34.883Z,23.33
2019-01-20T04:07:38.314Z,24.97
2019-01-20T04:10:41.865Z,23.53
2019-01-20T04:13:45.281Z,23.37
2019-01-20T04:16:48.724Z,20.97
2019-01-20T04:19:52.165Z,34.43
2019-01-20T04:22:55.638Z,19.30
2019-01-20T04:25:59.094Z,22.67
2019-01-20T04:29:02.512Z,22.00
2019-01-20T04:32:05.975Z,22.93
2019-01-20T04:35:10.538Z,20.70
2019-01-20T04:38:14.005Z,23.67
2019-01-20T04:41:19.849Z,20.20
2019-01-20T04:44:23.308Z,22.10
2019-01-20T04:47:26.751Z,24.37
2019-01-20T04:50:30.195Z,20.60
2019-01-20T04:53:33.793Z,20.80
2019-01-20T04:56:37.258Z,23.10
2019-01-20T04:59:40.675Z,21.03
2019-01-20T05:02:44.132Z,21.77
2019-01-20T05:05:47.553Z,19.40
2019-01-20T05:08:51.056Z,22.23
2019-01-20T05:11:54.473Z,18.13
2019-01-20T05:14:57.920Z,23.00
2019-01-20T05:18:01.355Z,19.70
2019-01-20T05:21:04.897Z,20.70
2019-01-20T05:24:08.404Z,21.93
2019-01-20T05:27:11.856Z,22.00
2019-01-20T05:30:19.906Z,20.30
2019-01-20T05:33:23.354Z,19.47
2019-01-20T05:36:26.772Z,19.07
2019-01-20T05:39:30.224Z,21.30
2019-01-20T05:42:33.675Z,20.60
2019-01-20T05:45:37.098Z,16.40
2019-01-20T05:48:40.549Z,17.33
2019-01-20T05:51:43.997Z,29.37
2019-01-20T05:54:47.423Z,18.07
2019-01-20T05:57:50.888Z,16.27
2019-01-20T06:00:54.320Z,19.30
2019-01-20T06:03:57.770Z,18.27
2019-01-20T06:07:01.199Z,19.20
2019-01-20T06:10:07.968Z,19.50
2019-01-20T06:13:11.392Z,18.77
2019-01-20T06:16:14.837Z,17.27
2019-01-20T06:19:18.288Z,22.73
2019-01-20T06:22:21.708Z,21.10
2019-01-20T06:25:25.188Z,22.93
2019-01-20T06:28:28.609Z,19.37
2019-01-20T06:31:32.053Z,19.27
2019-01-20T06:34:35.496Z,20.80
2019-01-20T06:37:38.955Z,23.00
2019-01-20T06:40:42.377Z,20.87
2019-01-20T06:43:45.832Z,22.20
2019-01-20T06:46:49.284Z,23.60
2019-01-20T06:49:52.704Z,22.73
2019-01-20T06:52:56.152Z,23.73
2019-01-20T06:55:59.576Z,27.27
2019-01-20T06:59:03.028Z,25.67
2019-01-20T07:02:06.485Z,24.00
2019-01-20T07:05:10.148Z,25.07
2019-01-20T07:08:13.600Z,23.60
2019-01-20T07:11:17.033Z,23.00
2019-01-20T07:14:20.477Z,22.83
2019-01-20T07:17:23.916Z,25.00
2019-01-20T07:20:27.349Z,25.33
2019-01-20T07:23:30.774Z,21.37
2019-01-20T07:26:34.203Z,24.53
2019-01-20T07:29:37.660Z,23.67
2019-01-20T07:32:41.076Z,23.93
2019-01-20T07:35:44.527Z,22.90
2019-01-20T07:38:47.973Z,20.47
2019-01-20T07:41:51.421Z,16.80
2019-01-20T07:44:54.851Z,18.60
2019-01-20T07:47:58.289Z,22.63
2019-01-20T07:51:01.710Z,19.87
2019-01-20T07:54:05.209Z,17.70
2019-01-20T07:57:08.629Z,14.30
2019-01-20T08:00:20.268Z,14.23
2019-01-20T08:03:23.680Z,17.47
2019-01-20T08:06:27.120Z,16.40
2019-01-20T08:09:30.559Z,13.53
2019-01-20T08:12:34.013Z,14.50
2019-01-20T08:15:37.424Z,16.57
2019-01-20T08:18:40.864Z,18.50
2019-01-20T08:21:44.285Z,16.80
2019-01-20T08:24:47.746Z,16.13
2019-01-20T08:27:51.228Z,16.30
2019-01-20T08:30:54.672Z,16.43
2019-01-20T08:33:58.088Z,16.20
2019-01-20T08:37:01.541Z,17.33
2019-01-20T08:40:08.025Z,17.97
2019-01-20T08:43:11.475Z,15.80
2019-01-20T08:46:20.606Z,13.47
2019-01-20T08:49:24.023Z,13.53
2019-01-20T08:52:27.479Z,16.27
2019-01-20T08:55:30.894Z,14.33
2019-01-20T08:58:34.340Z,13.20
2019-01-20T09:01:37.744Z,13.33
2019-01-20T09:04:41.193Z,14.80
2019-01-20T09:07:44.676Z,12.43
2019-01-20T09:10:48.120Z,16.30
2019-01-20T09:13:51.555Z,15.73
2019-01-20T09:16:54.980Z,15.67
2019-01-20T09:19:58.580Z,14.33
2019-01-20T09:23:01.997Z,18.30
2019-01-20T09:26:05.440Z,17.27
2019-01-20T09:29:08.856Z,14.87
2019-01-20T09:32:12.302Z,18.07
2019-01-20T09:35:15.834Z,17.13
2019-01-20T09:38:19.289Z,18.53
2019-01-20T09:41:22.713Z,18.87
2019-01-20T09:44:26.149Z,16.17
2019-01-20T09:47:29.585Z,18.50
2019-01-20T09:50:33.028Z,16.73
2019-01-20T09:53:36.472Z,15.90
2019-01-20T09:56:39.884Z,19.10
2019-01-20T09:59:43.332Z,16.57
2019-01-20T10:02:46.739Z,20.20
2019-01-20T10:05:50.192Z,19.20
2019-01-20T10:08:53.612Z,19.60
2019-01-20T10:11:57.059Z,19.93
2019-01-20T10:15:00.469Z,22.50
2019-01-20T10:18:04.105Z,18.67
2019-01-20T10:21:07.513Z,18.07
2019-01-20T10:24:10.968Z,21.13
2019-01-20T10:27:14.380Z,17.77
2019-01-20T10:30:21.085Z,18.37
2019-01-20T10:33:24.497Z,19.37
2019-01-20T10:36:27.944Z,18.67
2019-01-20T10:39:31.365Z,19.07
2019-01-20T10:42:34.803Z,18.43
2019-01-20T10:45:38.244Z,18.20
2019-01-20T10:48:41.673Z,18.87
2019-01-20T10:51:45.124Z,20.67
2019-01-20T10:54:48.540Z,19.47
2019-01-20T10:57:51.984Z,17.60
2019-01-20T11:00:55.424Z,20.73
2019-01-20T11:03:58.856Z,21.70
2019-01-20T11:07:02.293Z,17.33
2019-01-20T11:10:11.745Z,22.73
2019-01-20T11:13:15.191Z,19.00
2019-01-20T11:16:18.641Z,18.87
2019-01-20T11:19:22.049Z,18.43
2019-01-20T11:22:25.491Z,24.73
2019-01-20T11:25:31.759Z,19.40
2019-01-20T11:28:35.192Z,20.27
2019-01-20T11:31:38.712Z,19.93
2019-01-20T11:34:42.150Z,19.73
2019-01-20T11:37:45.595Z,40.93
2019-01-20T11:40:49.016Z,32.43
2019-01-20T11:43:52.458Z,19.90
2019-01-20T11:46:55.874Z,20.17
2019-01-20T11:49:59.325Z,17.83
2019-01-20T11:53:02.804Z,19.53
2019-01-20T11:56:06.248Z,20.03
2019-01-20T11:59:09.701Z,21.27
2019-01-20T12:02:13.095Z,17.83
2019-01-20T12:05:17.689Z,20.53
2019-01-20T12:08:21.113Z,19.90
2019-01-20T12:11:24.561Z,18.60
2019-01-20T12:14:27.968Z,18.93
2019-01-20T12:17:31.423Z,20.80
2019-01-20T12:20:34.832Z,21.70
2019-01-20T12:23:38.268Z,20.53
2019-01-20T12:26:41.712Z,22.57
2019-01-20T12:29:51.651Z,21.00
2019-01-20T12:32:50.304Z,19.67
2019-01-20T12:35:53.772Z,22.23
2019-01-20T12:38:57.213Z,21.50
2019-01-20T12:42:00.624Z,18.40
2019-01-20T12:45:05.480Z,20.67
2019-01-20T12:48:08.888Z,21.43
2019-01-20T12:51:12.547Z,24.87
2019-01-20T12:54:16.023Z,23.63
2019-01-20T12:57:19.476Z,22.50
2019-01-20T13:00:22.897Z,21.20
2019-01-20T13:03:26.339Z,22.43
2019-01-20T13:06:29.753Z,21.00
2019-01-20T13:09:33.200Z,23.13
2019-01-20T13:12:36.620Z,15.13
2019-01-20T13:15:41.601Z,17.20
2019-01-20T13:18:45.009Z,12.57
2019-01-20T13:21:49.371Z,11.80
2019-01-20T13:24:52.784Z,15.60
2019-01-20T13:27:56.241Z,13.33
2019-01-20T13:30:59.638Z,11.10
2019-01-20T13:34:03.077Z,10.30
2019-01-20T13:37:06.560Z,12.00
2019-01-20T13:40:13.120Z,12.27
2019-01-20T13:43:16.710Z,10.50
2019-01-20T13:46:21.355Z,13.27
2019-01-20T13:49:24.832Z,11.57
2019-01-20T13:52:29.199Z,16.80
2019-01-20T13:55:32.633Z,11.53
2019-01-20T13:58:36.066Z,13.53
2019-01-20T14:01:39.479Z,11.03
2019-01-20T14:04:42.920Z,10.57
2019-01-20T14:07:46.405Z,13.57
2019-01-20T14:10:49.857Z,11.63
2019-01-20T14:13:53.296Z,12.63
2019-01-20T14:16:56.728Z,11.33
2019-01-20T14:20:00.240Z,13.47
2019-01-20T14:23:04.616Z,13.93
2019-01-20T14:26:08.054Z,28.37
2019-01-20T14:29:11.465Z,13.30
2019-01-20T14:32:14.901Z,11.17
2019-01-20T14:35:18.332Z,12.13
2019-01-20T14:38:21.777Z,13.27
2019-01-20T14:41:25.212Z,12.27
2019-01-20T14:44:28.621Z,12.50
2019-01-20T14:47:32.878Z,13.97
2019-01-20T14:50:36.311Z,14.67
2019-01-20T14:53:39.745Z,13.33
2019-01-20T14:56:43.189Z,16.50
2019-01-20T14:59:46.600Z,15.40
2019-01-20T15:02:50.038Z,14.57
2019-01-20T15:05:53.483Z,15.67
2019-01-20T15:08:56.922Z,18.17
2019-01-20T15:12:01.319Z,16.73
2019-01-20T15:15:09.054Z,13.07
2019-01-20T15:18:12.713Z,16.90
2019-01-20T15:21:17.043Z,19.37
2019-01-20T15:24:20.496Z,14.93
2019-01-20T15:27:23.945Z,13.80
2019-01-20T15:30:32.040Z,14.50
2019-01-20T15:33:35.465Z,15.23
2019-01-20T15:36:38.940Z,14.93
2019-01-20T15:39:44.745Z,17.17
2019-01-20T15:42:48.410Z,17.23
2019-01-20T15:45:52.115Z,17.07
2019-01-20T15:48:55.739Z,17.13
2019-01-20T15:51:59.224Z,26.00
2019-01-20T15:55:02.668Z,17.27
2019-01-20T15:58:06.212Z,20.23
2019-01-20T16:01:09.707Z,18.57
2019-01-20T16:04:13.149Z,18.67
2019-01-20T16:07:16.601Z,15.00
2019-01-20T16:10:20.039Z,18.93
2019-01-20T16:13:25.425Z,17.87
2019-01-20T16:16:28.891Z,18.53
2019-01-20T16:19:32.453Z,20.97
2019-01-20T16:22:35.977Z,23.13
2019-01-20T16:25:39.477Z,21.70
2019-01-20T16:28:42.897Z,22.37
2019-01-20T16:31:46.364Z,24.33
2019-01-20T16:34:49.776Z,24.67
2019-01-20T16:37:53.666Z,25.50
2019-01-20T16:40:57.090Z,29.23
2019-01-20T16:44:00.541Z,24.00
2019-01-20T16:47:04.032Z,28.10
2019-01-20T16:50:10.564Z,22.17
2019-01-20T16:53:14.005Z,24.03
2019-01-20T16:56:17.430Z,24.43
2019-01-20T16:59:20.896Z,24.27
2019-01-20T17:02:24.327Z,23.97
2019-01-20T17:05:30.620Z,21.13
2019-01-20T17:08:34.044Z,29.07
2019-01-20T17:11:37.481Z,23.20
2019-01-20T17:14:40.921Z,27.13
2019-01-20T17:17:44.369Z,23.03
2019-01-20T17:20:47.895Z,26.50
2019-01-20T17:23:51.309Z,27.20
2019-01-20T17:26:54.761Z,23.13
2019-01-20T17:29:58.179Z,20.87
2019-01-20T17:33:01.960Z,19.83
2019-01-20T17:36:05.384Z,21.57
2019-01-20T17:39:12.086Z,22.80
2019-01-20T17:42:14.467Z,26.77
2019-01-20T17:45:23.373Z,27.27
2019-01-20T17:48:26.844Z,20.27
2019-01-20T17:51:30.287Z,23.73
2019-01-20T17:54:33.705Z,23.23
2019-01-20T17:57:37.145Z,26.80
2019-01-20T18:00:47.866Z,28.80
2019-01-20T18:03:51.313Z,27.30
2019-01-20T18:06:54.755Z,29.87
2019-01-20T18:09:58.192Z,29.63
2019-01-20T18:13:01.641Z,31.93
2019-01-20T18:16:05.095Z,31.93
2019-01-20T18:19:08.595Z,31.20
2019-01-20T18:22:13.933Z,35.43
2019-01-20T18:25:18.629Z,31.50
2019-01-20T18:28:22.050Z,32.17
2019-01-20T18:31:25.504Z,32.40
2019-01-20T18:34:28.928Z,33.87
2019-01-20T18:37:32.377Z,33.83
2019-01-20T18:40:35.834Z,29.97
2019-01-20T18:43:39.266Z,30.67
2019-01-20T18:46:43.710Z,29.57
2019-01-20T18:49:47.200Z,32.43
2019-01-20T18:52:52.192Z,29.73
2019-01-20T18:55:55.622Z,30.57
2019-01-20T18:58:59.068Z,31.10
2019-01-20T19:02:02.523Z,29.77
2019-01-20T19:05:09.044Z,31.27
2019-01-20T19:08:12.501Z,32.60
2019-01-20T19:11:15.924Z,29.97
2019-01-20T19:14:19.393Z,27.30
2019-01-20T19:17:22.832Z,29.00
2019-01-20T19:20:27.034Z,28.10
2019-01-20T19:23:30.561Z,30.13
2019-01-20T19:26:33.996Z,28.17
2019-01-20T19:29:37.436Z,30.33
2019-01-20T19:32:40.890Z,27.30
2019-01-20T19:35:44.314Z,30.73
2019-01-20T19:38:47.840Z,27.30
2019-01-20T19:41:51.297Z,31.70
2019-01-20T19:44:54.752Z,30.37
2019-01-20T19:47:58.247Z,29.53
2019-01-20T19:51:01.689Z,33.33
2019-01-20T19:54:05.191Z,32.43
2019-01-20T19:57:08.632Z,31.43
2019-01-20T20:00:17.975Z,32.80
2019-01-20T20:03:21.486Z,29.50
2019-01-20T20:06:24.928Z,26.97
2019-01-20T20:09:28.377Z,33.50
2019-01-20T20:12:31.804Z,31.03
2019-01-20T20:15:34.904Z,30.70
2019-01-20T20:18:38.349Z,31.33
2019-01-20T20:21:41.780Z,29.80
2019-01-20T20:24:45.229Z,35.63
2019-01-20T20:27:48.673Z,29.37
2019-01-20T20:30:52.131Z,31.20
2019-01-20T20:33:55.592Z,33.53
2019-01-20T20:37:00.408Z,36.00
2019-01-20T20:40:06.861Z,34.67
2019-01-20T20:43:10.328Z,35.83
2019-01-20T20:46:13.784Z,38.17
2019-01-20T20:49:17.228Z,37.00
2019-01-20T20:52:20.673Z,37.30
2019-01-20T20:55:24.118Z,40.27
2019-01-20T20:58:27.552Z,34.97
2019-01-20T21:01:30.988Z,38.13
2019-01-20T21:04:34.480Z,38.30
2019-01-20T21:07:37.980Z,37.37
2019-01-20T21:10:41.448Z,38.70
2019-01-20T21:13:44.865Z,35.97
2019-01-20T21:16:48.411Z,40.67
2019-01-20T21:19:51.832Z,38.07
2019-01-20T21:22:55.281Z,36.73
2019-01-20T21:25:58.718Z,39.93
2019-01-20T21:29:02.442Z,34.83
2019-01-20T21:32:05.885Z,38.40
2019-01-20T21:35:09.652Z,38.23
2019-01-20T21:38:13.096Z,38.97
2019-01-20T21:41:16.527Z,34.67
2019-01-20T21:44:20.173Z,35.83
2019-01-20T21:47:23.794Z,37.07
2019-01-20T21:50:29.722Z,37.80
2019-01-20T21:53:33.395Z,41.40
2019-01-20T21:56:37.094Z,39.40
2019-01-20T21:59:40.756Z,35.70
2019-01-20T22:02:44.445Z,37.40
2019-01-20T22:05:48.081Z,40.27
2019-01-20T22:08:51.662Z,42.37
2019-01-20T22:11:55.172Z,38.10
2019-01-20T22:14:58.598Z,36.43
2019-01-20T22:18:03.162Z,40.27
2019-01-20T22:21:06.773Z,39.20
2019-01-20T22:24:10.200Z,38.47
2019-01-20T22:27:13.656Z,41.20
2019-01-20T22:30:24.628Z,40.37
2019-01-20T22:33:28.081Z,38.63
2019-01-20T22:36:31.504Z,38.97
2019-01-20T22:39:34.953Z,39.17
2019-01-20T22:42:38.537Z,44.50
2019-01-20T22:45:41.982Z,39.67
2019-01-20T22:48:45.408Z,40.70
2019-01-20T22:51:48.861Z,41.37
2019-01-20T22:54:52.308Z,40.23
2019-01-20T22:57:55.820Z,38.47
2019-01-20T23:00:59.673Z,40.40
2019-01-20T23:04:03.119Z,45.33
2019-01-20T23:07:06.562Z,41.87
2019-01-20T23:10:10.064Z,46.43
2019-01-20T23:13:13.551Z,40.93
2019-01-20T23:16:17.032Z,49.53
2019-01-20T23:19:20.493Z,47.80
2019-01-20T23:22:23.924Z,47.77
2019-01-20T23:25:27.378Z,51.13
2019-01-20T23:28:30.831Z,50.47
2019-01-20T23:31:34.286Z,46.70
2019-01-20T23:34:37.703Z,46.23
2019-01-20T23:37:41.151Z,46.57
2019-01-20T23:40:44.608Z,47.13
2019-01-20T23:43:48.050Z,43.43
2019-01-20T23:46:51.548Z,42.57
2019-01-20T23:49:54.974Z,47.67
2019-01-20T23:52:58.408Z,46.67
2019-01-20T23:56:01.839Z,47.07
2019-01-20T23:59:05.279Z,49.63
